Time;durP1;ratioP1;P1;durP2;ratioP2;P2;SDS_P1;SDS_P2;PMS_P1;PMS_P2;Temp;Humidity;BMP_temperature;BMP_pressure;BME280_temperature;BME280_humidity;BME280_pressure;Samples;Min_cycle;Max_cycle;Signal;HPM_P1;HPM_P2
2022/11/13 00:03:29;;;;;;;5.57;4.95;;;12.50;60.40;;;11.24;61.21;102780.59;12274903;19;20051;-91
2022/11/13 00:07:49;;;;;;;6.18;4.65;;;12.50;60.40;;;11.33;61.11;102792.56;12277570;19;20074;-90
2022/11/13 00:12:09;;;;;;;7.32;5.50;;;12.50;60.30;;;11.33;61.35;102780.34;12275105;19;20023;-90
2022/11/13 00:16:30;;;;;;;8.52;5.28;;;12.60;60.40;;;11.08;61.27;102739.13;12274887;19;20002;-90
2022/11/13 00:20:50;;;;;;;9.07;5.55;;;12.60;60.60;;;11.40;61.46;102788.91;12276042;19;20003;-90
2022/11/13 00:25:10;;;;;;;7.35;5.18;;;12.50;61.20;;;11.43;61.24;102781.84;12273926;19;20014;-89
2022/11/13 00:29:31;;;;;;;6.75;5.40;;;12.60;61.30;;;11.31;61.37;102758.59;12274378;19;20023;-89
2022/11/13 00:33:51;;;;;;;6.47;5.55;;;12.60;60.70;;;11.38;61.35;102777.63;12273778;19;20507;-91
2022/11/13 00:38:12;;;;;;;9.75;5.45;;;12.70;60.70;;;11.51;61.25;102798.19;12274385;19;20010;-88
2022/11/13 00:42:32;;;;;;;7.40;5.90;;;12.60;60.70;;;11.41;61.46;102767.94;12271458;19;20014;-91
2022/11/13 00:46:53;;;;;;;6.90;5.25;;;12.70;60.70;;;11.48;61.34;102781.72;12273717;19;20022;-90
2022/11/13 00:51:13;;;;;;;5.70;4.97;;;12.70;60.70;;;11.42;61.32;102767.06;12267350;19;20361;-90
2022/11/13 00:55:34;;;;;;;8.88;5.32;;;12.70;60.90;;;11.44;61.42;102757.38;12261558;19;20015;-90
2022/11/13 00:59:55;;;;;;;8.18;6.00;;;12.90;60.90;;;11.54;61.47;102771.09;12261946;19;20045;-91
2022/11/13 01:04:15;;;;;;;7.05;5.05;;;12.70;60.80;;;11.55;61.51;102753.63;12260821;19;20022;-90
2022/11/13 01:08:36;;;;;;;6.60;5.55;;;12.70;60.80;;;11.46;61.58;102741.66;12263072;19;20030;-90
2022/11/13 01:12:56;;;;;;;6.80;5.18;;;12.70;60.80;;;11.47;61.49;102735.53;12262451;19;20011;-90
2022/11/13 01:17:17;;;;;;;6.20;5.07;;;12.70;60.80;;;11.60;61.41;102751.75;12264484;19;20023;-90
2022/11/13 01:21:37;;;;;;;6.63;4.82;;;12.70;60.80;;;11.57;61.52;102746.59;12264186;19;20022;-90
2022/11/13 01:26:17;;;;;;;7.43;5.88;;;12.80;60.90;;;11.63;61.42;102751.66;12264778;19;20019;-90
2022/11/13 01:30:39;;;;;;;6.28;5.30;;;12.80;61.10;;;11.56;61.59;102742.25;12267878;19;20023;-90
2022/11/13 01:34:59;;;;;;;6.22;5.18;;;12.80;61.00;;;11.57;61.54;102725.69;12262797;19;20023;-90
2022/11/13 01:39:19;;;;;;;7.22;5.25;;;12.80;61.00;;;11.62;61.52;102736.88;12266539;19;20015;-90
2022/11/13 01:43:40;;;;;;;8.90;5.05;;;12.80;60.80;;;11.68;61.56;102748.03;12265216;19;20472;-90
2022/11/13 01:48:00;;;;;;;8.23;5.53;;;12.80;60.90;;;11.68;61.57;102734.09;12268166;19;20044;-90
2022/11/13 01:52:37;;;;;;;6.03;5.07;;;12.90;61.10;;;11.67;61.46;102741.09;12264355;19;20011;-90
2022/11/13 01:56:59;;;;;;;6.13;4.88;;;12.80;61.00;;;11.62;61.50;102710.72;12263023;19;20007;-90
2022/11/13 02:01:19;;;;;;;5.75;4.60;;;12.90;61.00;;;11.60;61.37;102702.03;12263586;19;20014;-90
2022/11/13 02:05:40;;;;;;;5.53;4.88;;;12.90;61.00;;;11.78;61.63;102724.22;12260479;19;20015;-90
2022/11/13 02:10:00;;;;;;;7.25;4.75;;;12.90;61.00;;;11.66;61.48;102701.84;12265860;19;20007;-90
2022/11/13 02:14:24;;;;;;;6.55;5.13;;;12.90;61.20;;;11.70;61.67;102703.50;12257193;19;20014;-90
2022/11/13 02:18:45;;;;;;;6.90;5.32;;;12.90;61.10;;;11.71;61.65;102699.97;12263223;19;20094;-90
2022/11/13 02:23:29;;;;;;;6.65;5.50;;;13.00;61.20;;;11.80;61.57;102717.16;12261443;19;20015;-89
2022/11/13 02:27:50;;;;;;;8.93;5.55;;;12.90;61.20;;;11.80;61.59;102712.81;12263950;19;20488;-90
2022/11/13 02:32:10;;;;;;;7.28;5.47;;;13.00;61.20;;;11.74;61.62;102684.19;12265077;19;20011;-90
2022/11/13 02:36:31;;;;;;;5.15;4.55;;;13.00;61.20;;;11.83;61.69;102704.03;12270939;19;20014;-90
2022/11/13 02:40:51;;;;;;;5.72;4.68;;;13.00;61.30;;;11.86;61.64;102694.34;12271909;19;20026;-90
2022/11/13 02:45:12;;;;;;;7.85;5.30;;;13.00;61.30;;;11.51;61.62;102624.66;12271089;19;20011;-90
2022/11/13 02:49:32;;;;;;;6.30;4.90;;;13.00;61.20;;;11.85;61.81;102673.41;12282969;19;20014;-90
2022/11/13 02:53:53;;;;;;;7.68;4.88;;;13.10;61.30;;;11.86;61.81;102673.41;12278407;19;20011;-90
2022/11/13 02:58:14;;;;;;;5.97;4.65;;;13.10;61.20;;;11.91;61.74;102674.13;12283772;19;20019;-90
2022/11/13 03:02:35;;;;;;;5.47;4.90;;;13.10;61.20;;;11.90;61.90;102664.53;12280688;19;20478;-89
2022/11/13 03:06:55;;;;;;;6.65;4.68;;;13.10;61.20;;;11.85;61.63;102642.00;12281826;19;20080;-90
2022/11/13 03:11:16;;;;;;;6.28;4.95;;;13.10;61.10;;;11.98;61.70;102660.84;12287687;19;20006;-90
2022/11/13 03:15:36;;;;;;;4.63;4.22;;;13.20;61.20;;;11.93;61.70;102646.13;12279254;19;20023;-90
2022/11/13 03:19:57;;;;;;;4.57;4.13;;;13.20;61.20;;;12.01;61.78;102658.13;12280493;19;20011;-90
2022/11/13 03:24:17;;;;;;;6.47;4.95;;;13.20;61.10;;;12.08;61.52;102660.53;12277918;19;20492;-90
2022/11/13 03:28:38;;;;;;;4.68;4.18;;;13.30;61.20;;;12.06;61.86;102656.25;12278115;19;20066;-90
2022/11/13 03:32:58;;;;;;;6.28;4.60;;;13.20;61.00;;;12.01;61.71;102645.88;12275020;19;20360;-90
2022/11/13 03:37:18;;;;;;;5.13;4.20;;;13.30;61.20;;;11.66;61.89;102586.72;12273651;19;20003;-90
2022/11/13 03:41:39;;;;;;;5.88;4.15;;;13.30;61.10;;;12.00;61.96;102643.34;12272898;19;20010;-90
2022/11/13 03:45:59;;;;;;;5.57;5.00;;;13.30;61.00;;;12.04;61.96;102637.09;12266788;19;20023;-89
2022/11/13 03:50:19;;;;;;;5.25;4.22;;;13.30;60.90;;;12.11;61.90;102647.34;12270962;19;20011;-89
2022/11/13 03:54:40;;;;;;;5.47;4.72;;;13.30;60.90;;;12.12;61.60;102648.19;12268545;19;20019;-89
2022/11/13 03:59:00;;;;;;;5.15;4.32;;;13.30;60.70;;;11.86;61.95;102601.88;12270840;19;20018;-90
2022/11/13 04:03:21;;;;;;;4.57;4.07;;;13.30;60.70;;;12.23;61.84;102653.09;12268423;19;20022;-90
2022/11/13 04:07:42;;;;;;;4.40;4.00;;;13.40;60.70;;;12.25;61.88;102653.91;12270087;19;20019;-89
2022/11/13 04:12:03;;;;;;;5.07;4.10;;;13.40;60.60;;;12.12;61.82;102622.00;12269881;19;20006;-90
2022/11/13 04:16:23;;;;;;;7.78;4.32;;;13.40;60.60;;;12.20;61.80;102651.41;12268515;19;20066;-90
2022/11/13 04:20:43;;;;;;;4.90;4.28;;;13.40;60.60;;;12.31;61.90;102654.59;12269029;19;20003;-90
2022/11/13 04:25:05;;;;;;;9.55;4.35;;;13.50;60.50;;;12.22;61.80;102635.66;12266928;19;20011;-90
2022/11/13 04:29:26;;;;;;;7.90;4.15;;;13.50;60.50;;;12.24;61.72;102634.72;12269900;19;20014;-90
2022/11/13 04:33:46;;;;;;;3.95;3.60;;;13.50;60.40;;;12.00;61.84;102593.59;12267387;19;20038;-90
2022/11/13 04:38:07;;;;;;;6.20;3.70;;;13.50;60.30;;;12.29;61.73;102629.34;12269830;19;20397;-90
2022/11/13 04:47:08;;;;;;;3.65;3.35;;;13.50;60.10;;;12.30;61.78;102625.81;12269370;19;20480;-90
2022/11/13 04:51:28;;;;;;;4.68;3.83;;;13.50;60.10;;;12.31;61.63;102631.00;12269600;19;20011;-90
2022/11/13 04:55:51;;;;;;;4.72;4.18;;;13.50;60.10;;;11.90;61.88;102558.97;12264592;19;20014;-90
2022/11/13 05:00:12;;;;;;;4.03;3.63;;;13.50;60.10;;;12.32;61.73;102624.84;12268786;19;20010;-90
2022/11/13 05:04:31;;;;;;;4.97;3.67;;;13.50;60.20;;;11.96;61.81;102564.00;12265202;19;20051;-90
2022/11/13 05:08:52;;;;;;;4.55;3.72;;;13.50;60.10;;;12.24;61.92;102610.28;12267270;19;20022;-90
2022/11/13 05:13:12;;;;;;;4.72;4.05;;;13.50;60.20;;;12.38;61.80;102627.28;12265902;19;20014;-90
2022/11/13 05:17:33;;;;;;;4.47;4.00;;;13.50;60.30;;;12.29;61.80;102609.25;12268558;19;20014;-90
2022/11/13 05:21:53;;;;;;;4.95;4.18;;;13.50;60.30;;;12.34;61.79;102620.44;12267450;19;20019;-91
2022/11/13 05:26:14;;;;;;;4.53;4.03;;;13.60;60.30;;;12.45;61.97;102629.69;12268674;19;20015;-89
2022/11/13 05:30:34;;;;;;;3.97;3.60;;;13.60;60.30;;;12.38;61.81;102619.41;12265369;19;20010;-90
2022/11/13 05:34:55;;;;;;;5.43;4.40;;;13.60;60.30;;;12.01;61.78;102546.38;12263706;19;20014;-90
2022/11/13 05:39:16;;;;;;;5.18;3.78;;;13.60;60.50;;;12.45;61.83;102624.44;12260206;19;20522;-90
2022/11/13 05:43:38;;;;;;;5.35;4.85;;;13.60;60.40;;;12.34;61.83;102595.97;12259947;19;20471;-90
2022/11/13 05:47:58;;;;;;;5.38;4.60;;;13.60;60.40;;;12.36;61.67;102597.63;12260817;19;20018;-89
2022/11/13 05:52:18;;;;;;;7.22;4.75;;;13.60;60.50;;;12.38;61.82;102603.69;12258633;19;20018;-90
2022/11/13 05:56:39;;;;;;;6.20;5.05;;;13.60;60.50;;;12.47;61.77;102607.75;12257539;19;20468;-89
2022/11/13 06:01:28;;;;;;;7.88;5.55;;;13.60;60.40;;;12.38;61.90;102598.44;12256797;19;20015;-89
2022/11/13 06:05:49;;;;;;;6.63;5.40;;;13.60;60.50;;;12.48;61.96;102598.16;12252054;19;20085;-90
2022/11/13 06:10:11;;;;;;;8.00;6.05;;;13.70;60.50;;;12.50;61.86;102591.09;12259113;19;20086;-89
2022/11/13 06:14:31;;;;;;;8.10;6.38;;;13.70;60.50;;;12.51;61.81;102585.81;12255810;19;20400;-90
2022/11/13 06:18:56;;;;;;;7.38;5.85;;;13.70;60.60;;;12.45;61.77;102575.53;12257924;19;20074;-89
2022/11/13 06:23:17;;;;;;;9.35;7.57;;;13.70;60.50;;;12.46;61.88;102569.38;12265883;19;20011;-89
2022/11/13 06:27:37;;;;;;;9.32;8.20;;;13.70;60.60;;;12.51;61.87;102584.97;12285003;19;20014;-90
2022/11/13 06:31:57;;;;;;;9.40;7.90;;;13.70;60.60;;;12.58;61.77;102594.31;12275844;19;20014;-90
2022/11/13 06:36:25;;;;;;;12.38;8.55;;;13.70;60.80;;;12.52;61.96;102581.41;12280824;19;20014;-90
2022/11/13 06:40:45;;;;;;;8.18;6.85;;;13.70;60.80;;;12.55;61.91;102582.16;12278794;19;20011;-90
2022/11/13 06:45:06;;;;;;;8.20;7.07;;;13.70;60.80;;;12.23;61.82;102529.97;12271191;19;20007;-90
2022/11/13 06:49:27;;;;;;;9.32;7.03;;;13.80;60.90;;;12.62;61.95;102581.06;12274181;19;20411;-89
2022/11/13 06:53:47;;;;;;;10.65;7.63;;;13.80;60.80;;;12.53;61.80;102556.91;12269956;19;20014;-90
2022/11/13 06:58:08;;;;;;;7.70;6.88;;;13.80;60.80;;;12.50;61.90;102559.66;12273074;19;20015;-89
2022/11/13 07:02:28;;;;;;;8.43;6.80;;;13.80;60.90;;;12.72;61.97;102581.63;12268298;19;20082;-90
2022/11/13 07:06:49;;;;;;;9.20;6.25;;;13.80;60.80;;;12.73;62.08;102575.44;12271285;19;20074;-89
2022/11/13 07:11:12;;;;;;;7.30;6.15;;;13.80;61.60;;;12.67;61.92;102564.34;12270529;19;20414;-89
2022/11/13 07:15:37;;;;;;;8.32;6.20;;;13.80;60.90;;;12.69;62.03;102567.72;12264674;19;20014;-87
2022/11/13 07:20:06;;;;;;;9.43;6.20;;;13.90;60.90;;;12.73;61.96;102572.81;12270109;19;20010;-91
2022/11/13 07:24:27;;;;;;;6.28;5.68;;;13.90;61.00;;;12.66;62.06;102555.59;12268064;19;20014;-89
2022/11/13 07:28:49;;;;;;;7.05;5.95;;;13.90;61.00;;;12.60;62.01;102540.94;12273134;19;20010;-90
2022/11/13 07:33:09;;;;;;;10.32;7.10;;;13.90;61.00;;;12.65;61.90;102559.13;12269167;19;20010;-90
2022/11/13 07:37:29;;;;;;;6.40;5.45;;;13.90;61.10;;;12.79;61.96;102571.75;12272282;19;20081;-89
2022/11/13 07:41:50;;;;;;;9.75;6.70;;;13.90;61.30;;;12.67;62.06;102552.06;12269947;19;20010;-89
2022/11/13 07:46:10;;;;;;;11.07;6.65;;;13.90;61.30;;;12.69;61.93;102552.00;12267387;19;20019;-90
2022/11/13 07:50:35;;;;;;;10.48;7.95;;;13.90;61.40;;;12.65;62.04;102542.56;12264408;19;20018;-90
2022/11/13 07:54:56;;;;;;;8.07;7.15;;;13.90;61.40;;;12.72;62.14;102565.88;12261967;19;20491;-90
2022/11/13 07:59:16;;;;;;;8.23;6.78;;;13.90;61.30;;;12.68;62.10;102545.06;12269836;19;20011;-89
2022/11/13 08:03:37;;;;;;;7.30;6.25;;;13.90;61.10;;;12.71;62.00;102548.41;12264918;19;20331;-90
2022/11/13 08:07:57;;;;;;;8.27;6.78;;;13.90;61.10;;;12.78;62.18;102551.69;12267394;19;20019;-90
2022/11/13 08:12:18;;;;;;;10.05;7.07;;;13.90;61.10;;;12.86;62.06;102562.78;12264844;19;20014;-91
2022/11/13 08:16:38;;;;;;;9.43;6.78;;;13.90;61.00;;;12.75;62.01;102543.94;12256687;19;20042;-89
2022/11/13 08:21:02;;;;;;;8.52;6.50;;;13.90;60.90;;;12.79;62.02;102556.03;12264011;19;20006;-89
2022/11/13 08:25:22;;;;;;;10.18;7.57;;;13.90;60.90;;;12.52;62.12;102514.13;12261617;19;20015;-89
2022/11/13 08:29:43;;;;;;;9.05;7.28;;;13.90;60.70;;;12.74;62.11;102542.22;12267205;19;20010;-89
2022/11/13 08:34:04;;;;;;;8.93;6.80;;;13.90;60.50;;;12.71;62.24;102527.44;12264702;19;20058;-88
2022/11/13 08:38:25;;;;;;;7.50;6.28;;;14.00;60.60;;;12.68;62.13;102521.47;12259749;19;20456;-89
2022/11/13 08:42:45;;;;;;;10.02;6.28;;;14.00;60.30;;;12.76;61.95;102540.41;12265367;19;20491;-89
2022/11/13 08:47:06;;;;;;;7.45;6.28;;;14.00;60.20;;;12.96;62.02;102561.53;12263563;19;20010;-89
2022/11/13 08:51:27;;;;;;;7.47;6.03;;;14.00;60.10;;;12.87;62.03;102553.13;12262863;19;20014;-88
2022/11/13 08:55:49;;;;;;;8.20;6.18;;;14.10;60.00;;;12.79;61.97;102530.66;12187334;19;20007;-89
2022/11/13 09:00:10;;;;;;;7.15;5.65;;;14.00;59.80;;;12.68;61.96;102516.22;12265403;19;20539;-89
2022/11/13 09:04:31;;;;;;;7.20;5.80;;;14.10;60.00;;;12.92;61.82;102544.19;12264169;19;20011;-89
2022/11/13 09:08:50;;;;;;;10.20;5.68;;;14.00;59.70;;;12.71;61.88;102509.09;12211632;19;20468;-90
2022/11/13 09:13:11;;;;;;;8.05;5.68;;;14.10;59.70;;;12.98;61.89;102543.97;12208326;19;20007;-90
2022/11/13 09:17:32;;;;;;;6.18;5.07;;;14.10;59.70;;;12.82;61.94;102514.81;12264212;19;20003;-89
2022/11/13 09:21:52;;;;;;;6.68;5.15;;;14.10;59.70;;;13.04;61.92;102546.38;12258652;19;20034;-89
2022/11/13 09:26:13;;;;;;;7.35;5.07;;;14.10;59.60;;;13.07;61.86;102543.66;12258924;19;20010;-89
2022/11/13 09:30:36;;;;;;;8.82;6.05;;;14.10;59.40;;;13.07;61.82;102550.66;12257876;19;20472;-89
2022/11/13 09:34:56;;;;;;;6.53;5.20;;;14.10;59.20;;;13.07;61.87;102543.66;12254896;19;20014;-89
2022/11/13 09:39:17;;;;;;;6.18;5.57;;;14.10;59.30;;;13.00;61.80;102526.41;12262348;19;20007;-89
2022/11/13 09:43:51;;;;;;;6.60;5.22;;;14.20;59.30;;;13.06;61.76;102533.19;12263702;19;20006;-88
2022/11/13 09:48:35;;;;;;;7.03;5.07;;;14.20;59.10;;;13.07;61.76;102535.78;12265145;19;20003;-90
2022/11/13 09:52:55;;;;;;;6.50;5.25;;;14.20;59.00;;;13.10;61.76;102524.31;12263250;19;20460;-89
2022/11/13 09:57:41;;;;;;;7.35;5.65;;;14.20;59.20;;;13.03;61.87;102518.44;12260791;19;20015;-89
2022/11/13 10:02:20;;;;;;;5.97;5.05;;;14.20;59.00;;;13.14;61.76;102528.53;12261026;19;20018;-88
2022/11/13 10:06:58;;;;;;;6.35;4.95;;;14.20;59.10;;;13.04;61.63;102508.78;12264758;19;20350;-88
2022/11/13 10:11:43;;;;;;;6.10;5.55;;;14.20;58.90;;;13.12;61.57;102516.38;12261962;19;20014;-88
2022/11/13 10:16:32;;;;;;;7.15;6.00;;;14.30;58.70;;;13.06;61.53;102496.47;12266504;19;20014;-87
2022/11/13 10:21:16;;;;;;;6.50;5.38;;;14.30;58.70;;;13.14;61.59;102504.06;12261347;19;20019;-88
2022/11/13 10:25:42;;;;;;;6.95;6.05;;;14.30;58.80;;;13.20;61.60;102512.56;12256841;19;20010;-88
2022/11/13 10:30:12;;;;;;;8.45;6.45;;;14.30;58.50;;;13.12;61.60;102500.63;12262213;19;20019;-90
2022/11/13 10:34:32;;;;;;;7.10;6.03;;;14.30;58.40;;;13.25;61.49;102499.28;12257159;19;20010;-89
2022/11/13 10:39:02;;;;;;;7.25;6.55;;;14.30;58.60;;;13.15;61.52;102483.03;12260163;19;20019;-88
2022/11/13 10:43:25;;;;;;;8.05;6.60;;;14.30;58.40;;;13.22;61.42;102494.16;12256958;19;20023;-88
2022/11/13 10:47:50;;;;;;;8.30;6.38;;;14.40;58.40;;;13.19;61.43;102468.03;12259072;19;20018;-89
2022/11/13 10:52:19;;;;;;;;;;;14.40;58.20;;;13.22;61.39;102481.88;12259410;19;20476;-88
2022/11/13 10:56:40;;;;;;;6.15;5.40;;;14.50;58.30;;;13.34;61.42;102471.84;12259420;19;20242;-89
2022/11/13 11:01:01;;;;;;;10.13;6.80;;;14.50;58.40;;;13.39;61.52;102469.91;12257681;19;20019;-89
2022/11/13 11:05:25;;;;;;;8.40;7.07;;;14.50;58.20;;;13.44;61.42;102465.34;12256945;19;20006;-88
2022/11/13 11:09:47;;;;;;;9.27;6.72;;;14.50;58.50;;;13.48;61.39;102472.19;12274532;19;20066;-89
2022/11/13 11:14:32;;;;;;;8.40;7.55;;;14.60;58.10;;;13.49;61.22;102459.00;12269056;19;20024;-88
2022/11/13 11:19:00;;;;;;;7.57;6.70;;;14.60;58.10;;;13.47;61.27;102444.22;12274650;19;20404;-87
2022/11/13 11:23:53;;;;;;;9.60;7.50;;;14.70;58.10;;;13.45;61.17;102440.81;12273034;19;20351;-88
2022/11/13 11:28:52;;;;;;;7.70;6.88;;;14.70;58.10;;;13.59;61.27;102453.41;12273293;19;20018;-88
2022/11/13 11:33:26;;;;;;;8.82;7.57;;;14.70;58.10;;;13.56;61.31;102430.75;12267671;19;20340;-88
2022/11/13 11:38:10;;;;;;;7.68;6.88;;;14.70;58.00;;;13.60;61.03;102429.69;12272504;19;20022;-88
2022/11/13 11:42:45;;;;;;;11.93;8.20;;;14.80;58.00;;;13.73;61.06;102428.28;12263909;19;20006;-90
2022/11/13 11:47:15;;;;;;;9.83;8.10;;;14.80;57.90;;;13.66;61.03;102410.19;12267232;19;20010;-92
2022/11/13 11:52:17;;;;;;;10.35;7.93;;;14.80;57.90;;;13.82;60.97;102419.16;12265718;19;20019;-91
2022/11/13 11:57:26;;;;;;;10.05;8.85;;;14.90;57.80;;;13.87;61.01;102408.47;12254018;19;20381;-90
2022/11/13 12:02:19;;;;;;;8.82;7.78;;;15.00;57.70;;;13.92;60.99;102407.34;12262713;19;20028;-92
2022/11/13 12:07:20;;;;;;;10.32;7.80;;;15.10;57.90;;;14.01;60.91;102392.13;12261863;19;20019;-91
2022/11/13 12:11:55;;;;;;;10.57;8.73;;;15.10;57.60;;;14.04;60.92;102395.50;12257503;19;20527;-91
2022/11/13 12:16:37;;;;;;;8.98;7.68;;;15.20;57.50;;;14.10;60.94;102383.84;12260249;19;20503;-91
2022/11/13 12:21:16;;;;;;;9.48;8.23;;;15.20;57.70;;;14.15;60.85;102385.38;12260008;19;20015;-92
2022/11/13 12:25:54;;;;;;;10.55;7.53;;;15.20;57.30;;;14.17;60.77;102383.50;12257804;19;20030;-92
2022/11/13 12:30:22;;;;;;;9.80;7.65;;;15.30;57.30;;;14.08;60.78;102344.50;12260630;19;20014;-91
2022/11/13 12:34:52;;;;;;;8.88;7.75;;;15.30;57.30;;;14.23;60.75;102374.53;12257201;19;20356;-92
2022/11/13 12:39:28;;;;;;;9.38;7.82;;;15.40;57.10;;;14.32;60.78;102374.09;12259611;19;20018;-92
2022/11/13 12:44:15;;;;;;;11.63;8.38;;;15.40;57.20;;;14.32;60.64;102374.09;12256008;19;20015;-91
2022/11/13 12:48:45;;;;;;;10.25;7.57;;;15.50;57.10;;;14.34;60.64;102359.13;12257881;19;20011;-90
2022/11/13 12:53:10;;;;;;;9.23;7.22;;;15.40;56.80;;;14.10;60.52;102300.63;12259291;19;20007;-90
2022/11/13 12:57:31;;;;;;;10.52;7.32;;;15.50;56.90;;;14.35;60.50;102339.78;12258197;19;20078;-90
2022/11/13 13:02:07;;;;;;;9.57;7.10;;;15.50;56.70;;;14.30;60.31;102328.63;12256002;19;20866;-90
2022/11/13 13:06:58;;;;;;;10.18;8.45;;;15.50;56.50;;;14.44;60.38;102341.16;12256729;19;20553;-90
2022/11/13 13:11:48;;;;;;;12.80;8.50;;;15.60;56.80;;;14.36;60.40;102315.22;12259739;19;20098;-90
2022/11/13 13:16:10;;;;;;;10.02;8.52;;;15.60;56.70;;;14.38;60.34;102315.16;12256772;19;20480;-91
2022/11/13 13:20:43;;;;;;;12.98;8.48;;;15.50;56.60;;;14.37;60.15;102316.09;12258452;19;20018;-90
2022/11/13 13:25:25;;;;;;;9.77;7.97;;;15.50;56.70;;;14.41;60.20;102325.53;12257635;19;20098;-90
2022/11/13 13:29:45;;;;;;;10.73;8.02;;;15.50;56.80;;;14.38;60.20;102313.38;12258150;19;20015;-90
2022/11/13 13:34:58;;;;;;;9.23;7.15;;;15.50;56.30;;;14.41;60.12;102317.63;12258419;19;20006;-90
2022/11/13 13:39:40;;;;;;;7.72;6.93;;;15.50;56.30;;;14.42;60.02;102324.63;12258631;19;20018;-90
2022/11/13 13:44:38;;;;;;;7.95;6.45;;;15.50;56.40;;;14.35;60.03;102315.28;12256325;19;20010;-90
2022/11/13 13:49:08;;;;;;;8.20;5.97;;;15.50;56.70;;;14.31;60.03;102296.19;12261081;19;20018;-89
2022/11/13 13:53:33;;;;;;;6.80;6.00;;;15.50;56.70;;;14.42;60.10;102311.47;12255320;19;20345;-89
2022/11/13 13:57:54;;;;;;;7.90;5.70;;;15.50;56.90;;;14.44;59.90;102317.50;12262595;19;20019;-89
2022/11/13 14:02:19;;;;;;;7.53;6.53;;;15.50;56.90;;;14.25;59.76;102290.34;12261916;19;20026;-89
2022/11/13 14:06:57;;;;;;;7.38;6.57;;;15.50;56.70;;;14.43;59.79;102321.06;12262611;19;20023;-90
2022/11/13 14:11:28;;;;;;;7.38;5.45;;;15.50;56.80;;;14.43;59.80;102310.53;12262708;19;20057;-90
2022/11/13 14:15:48;;;;;;;7.60;5.90;;;15.50;56.70;;;14.33;59.86;102294.31;12250344;19;20012;-91
2022/11/13 14:20:12;;;;;;;6.13;5.53;;;15.50;56.80;;;14.38;59.68;102307.28;12078726;19;20472;-91
2022/11/13 14:24:54;;;;;;;5.85;5.00;;;15.50;56.80;;;14.15;59.90;102269.75;12094700;19;20014;-91
2022/11/13 14:29:26;;;;;;;6.32;5.70;;;15.40;56.80;;;14.12;59.60;102264.66;12091450;19;20018;-91
2022/11/13 14:33:49;;;;;;;6.45;5.47;;;15.40;56.70;;;14.11;59.62;102270.81;12085491;19;20018;-91
2022/11/13 14:38:26;;;;;;;5.97;5.03;;;15.30;56.70;;;14.03;59.60;102274.72;12086926;19;20015;-91
2022/11/13 14:42:55;;;;;;;6.75;5.63;;;15.30;56.80;;;14.05;59.63;102278.97;12266676;19;20014;-90
2022/11/13 14:47:36;;;;;;;7.20;5.78;;;15.20;56.80;;;14.01;59.65;102277.38;12267374;19;20015;-90
2022/11/13 14:51:57;;;;;;;12.65;5.38;;;15.10;56.80;;;14.05;59.57;102284.22;12272389;19;20006;-90
2022/11/13 14:56:17;;;;;;;6.15;4.85;;;15.10;56.90;;;13.95;59.58;102282.94;12273294;19;20022;-89
2022/11/13 15:00:38;;;;;;;6.65;5.43;;;15.10;57.00;;;13.87;59.50;102269.28;12275076;19;20010;-90
2022/11/13 15:04:59;;;;;;;8.75;6.05;;;15.00;57.00;;;13.89;59.57;102288.47;12270260;19;20468;-89
2022/11/13 15:09:19;;;;;;;8.88;5.05;;;14.90;56.90;;;13.81;59.48;102272.19;12272904;19;20015;-90
2022/11/13 15:13:40;;;;;;;11.77;6.30;;;14.90;57.10;;;13.76;59.64;102282.88;12269990;19;20041;-90
2022/11/13 15:18:01;;;;;;;6.25;5.25;;;14.80;57.00;;;13.62;59.49;102266.88;12272519;19;20022;-90
2022/11/13 15:22:22;;;;;;;5.70;4.68;;;14.70;57.00;;;13.60;59.49;102273.97;12271310;19;20030;-91
2022/11/13 15:26:43;;;;;;;5.85;5.20;;;14.70;57.10;;;13.52;59.43;102262.94;12271137;19;20013;-90
2022/11/13 15:31:43;;;;;;;5.70;5.13;;;14.60;57.10;;;13.44;59.43;102276.38;12273612;19;20010;-90
2022/11/13 15:36:03;;;;;;;6.30;5.30;;;14.50;57.00;;;13.40;59.54;102273.06;12273456;19;20366;-89
2022/11/13 15:40:24;;;;;;;7.28;5.97;;;14.40;57.10;;;13.30;59.47;102263.00;12275045;19;20022;-90
2022/11/13 15:44:45;;;;;;;9.13;6.05;;;14.40;57.20;;;13.18;59.39;102270.44;12265211;19;20014;-90
2022/11/13 15:49:05;;;;;;;7.90;6.30;;;14.30;57.00;;;12.77;59.48;102209.19;12271607;19;20074;-90
2022/11/13 15:53:26;;;;;;;10.48;6.53;;;14.20;57.10;;;12.66;59.56;102207.00;12265459;19;20011;-90
2022/11/13 15:57:48;;;;;;;8.48;6.95;;;14.10;57.10;;;13.00;59.58;102276.44;12268338;19;20019;-90
2022/11/13 16:02:09;;;;;;;8.60;6.80;;;14.00;57.10;;;12.88;59.51;102266.41;12265171;19;20018;-89
2022/11/13 16:06:30;;;;;;;11.18;7.25;;;13.90;57.20;;;12.72;59.64;102240.84;12263282;19;20326;-88
2022/11/13 16:10:50;;;;;;;9.52;8.13;;;13.90;57.30;;;12.73;59.41;102263.50;12268707;19;20345;-89
2022/11/13 16:15:15;;;;;;;9.43;7.45;;;13.80;57.20;;;12.77;59.47;102269.47;12260792;19;20317;-89
2022/11/13 16:19:38;;;;;;;8.13;6.60;;;13.70;57.30;;;12.26;59.48;102190.25;12268031;19;20014;-89
2022/11/13 16:23:58;;;;;;;7.47;6.20;;;13.70;57.40;;;12.69;59.59;102261.94;12265419;19;20010;-89
2022/11/13 16:28:19;;;;;;;10.00;5.78;;;13.60;57.30;;;12.56;59.63;102256.31;12270117;19;20007;-89
2022/11/13 16:32:39;;;;;;;7.57;6.85;;;13.60;57.40;;;12.35;59.49;102234.41;12265938;19;20362;-89
2022/11/13 16:37:00;;;;;;;10.38;6.93;;;13.50;57.40;;;12.35;59.43;102241.41;12264572;19;20365;-88
2022/11/13 16:41:22;;;;;;;8.30;6.35;;;13.50;57.40;;;12.30;59.49;102249.44;12261408;19;20010;-87
2022/11/13 16:45:43;;;;;;;8.07;6.13;;;13.40;57.40;;;12.36;59.59;102270.16;12255258;19;20022;-87
2022/11/13 16:50:25;;;;;;;7.53;6.13;;;13.30;57.50;;;12.20;59.57;102253.31;12260654;19;20074;-88
2022/11/13 16:54:45;;;;;;;7.97;6.45;;;13.30;57.60;;;12.21;59.53;102249.81;12252248;19;20018;-87
2022/11/13 16:59:08;;;;;;;7.78;6.55;;;13.30;57.50;;;12.24;59.56;102265.41;12261171;19;20019;-88
2022/11/13 17:03:29;;;;;;;9.65;6.60;;;13.20;57.40;;;12.15;59.52;102260.47;12256611;19;20006;-87
2022/11/13 17:07:55;;;;;;;8.13;7.25;;;13.10;57.50;;;12.05;59.41;102248.66;12257307;19;20006;-89
2022/11/13 17:12:16;;;;;;;9.75;6.90;;;13.00;57.40;;;11.88;59.39;102231.81;12254805;19;20458;-88
2022/11/13 17:16:37;;;;;;;8.45;6.75;;;13.00;57.50;;;11.83;59.42;102230.25;12257245;19;20010;-89
2022/11/13 17:20:58;;;;;;;10.30;6.82;;;12.90;57.70;;;11.82;59.69;102239.00;12258200;19;20010;-88
2022/11/13 17:25:22;;;;;;;10.98;8.23;;;12.80;57.80;;;11.80;59.77;102246.03;12262126;19;20019;-89
2022/11/13 17:29:43;;;;;;;10.95;8.10;;;12.70;57.90;;;11.38;59.53;102181.25;12259728;19;20007;-89
2022/11/13 17:34:03;;;;;;;12.32;9.20;;;12.70;57.90;;;11.65;59.62;102250.91;12257732;19;20375;-88
2022/11/13 17:38:25;;;;;;;14.35;9.60;;;12.60;58.10;;;11.45;59.86;102232.44;12261943;19;20070;-88
2022/11/13 17:42:47;;;;;;;12.27;9.32;;;12.50;58.20;;;11.27;59.67;102213.84;12258882;19;20003;-89
2022/11/13 17:47:07;;;;;;;14.18;10.60;;;12.50;58.30;;;11.37;59.82;102243.19;12264622;19;20015;-89
2022/11/13 17:51:31;;;;;;;14.77;10.43;;;12.50;58.40;;;11.39;59.98;102261.41;12258497;19;20022;-88
2022/11/13 17:55:55;;;;;;;16.50;11.00;;;12.40;58.40;;;11.26;59.95;102248.78;12258739;19;20018;-89
2022/11/13 18:00:19;;;;;;;15.63;11.85;;;12.30;58.40;;;11.23;59.97;102263.69;12260783;19;20014;-89
2022/11/13 18:04:39;;;;;;;13.98;10.50;;;12.30;58.50;;;11.21;60.09;102270.75;12259243;19;20464;-89
2022/11/13 18:08:59;;;;;;;16.35;10.40;;;12.20;58.40;;;11.16;60.17;102263.03;12261371;19;20345;-88
2022/11/13 18:13:20;;;;;;;13.73;9.85;;;12.20;58.40;;;11.17;60.23;102266.50;12254066;19;20019;-88
2022/11/13 18:17:40;;;;;;;13.65;10.00;;;12.40;58.70;;;10.99;60.08;102219.16;12266416;19;20014;-88